createdAt,value
2019-05-19T00:00:27.384Z,15.64
2019-05-19T00:05:34.581Z,15.61
2019-05-19T00:10:41.581Z,15.42
2019-05-19T00:15:48.484Z,15.27
2019-05-19T00:20:55.500Z,15.27
2019-05-19T00:26:02.473Z,15.11
2019-05-19T00:31:09.543Z,14.99
2019-05-19T00:36:19.529Z,14.86
2019-05-19T00:41:25.434Z,14.76
2019-05-19T00:46:32.468Z,14.71
2019-05-19T00:51:39.907Z,14.71
2019-05-19T00:56:48.455Z,14.64
2019-05-19T01:01:55.472Z,14.58
2019-05-19T01:07:02.671Z,14.39
2019-05-19T01:12:13.289Z,14.31
2019-05-19T01:17:20.456Z,14.31
2019-05-19T01:22:27.609Z,14.30
2019-05-19T01:27:34.449Z,14.28
2019-05-19T01:32:41.505Z,14.18
2019-05-19T01:37:48.444Z,14.10
2019-05-19T01:42:55.478Z,14.10
2019-05-19T01:48:03.463Z,13.85
2019-05-19T01:53:10.476Z,13.80
2019-05-19T01:58:17.459Z,13.80
2019-05-19T02:03:24.497Z,13.76
2019-05-19T02:08:31.602Z,13.73
2019-05-19T02:13:38.602Z,13.72
2019-05-19T02:18:45.466Z,13.71
2019-05-19T02:23:52.516Z,13.71
2019-05-19T02:28:59.474Z,13.71
2019-05-19T02:34:06.587Z,13.66
2019-05-19T02:39:13.532Z,13.47
2019-05-19T02:44:22.089Z,13.39
2019-05-19T02:49:32.040Z,13.37
2019-05-19T02:54:40.072Z,13.37
2019-05-19T02:59:47.581Z,13.36
2019-05-19T03:04:54.500Z,13.35
2019-05-19T03:10:01.444Z,13.35
2019-05-19T03:15:09.093Z,13.35
2019-05-19T03:20:16.618Z,13.36
2019-05-19T03:25:26.586Z,13.36
2019-05-19T03:30:51.504Z,13.36
2019-05-19T03:35:58.460Z,13.35
2019-05-19T03:41:05.587Z,13.36
2019-05-19T03:46:12.434Z,13.58
2019-05-19T03:51:30.231Z,13.58
2019-05-19T03:56:28.411Z,13.73
2019-05-19T04:01:35.577Z,13.89
2019-05-19T04:06:42.435Z,14.30
2019-05-19T04:11:49.486Z,14.30
2019-05-19T04:16:56.430Z,14.49
2019-05-19T04:22:03.546Z,14.68
2019-05-19T04:27:12.574Z,14.89
2019-05-19T04:32:19.589Z,15.27
2019-05-19T04:37:26.439Z,15.45
2019-05-19T04:42:33.470Z,15.45
2019-05-19T04:47:40.536Z,15.62
2019-05-19T04:52:48.448Z,15.79
2019-05-19T04:57:55.470Z,15.91
2019-05-19T05:03:02.516Z,16.07
2019-05-19T05:08:25.201Z,16.48
2019-05-19T05:13:18.437Z,16.48
2019-05-19T05:18:26.438Z,16.73
2019-05-19T05:23:33.455Z,16.91
2019-05-19T05:28:40.456Z,17.03
2019-05-19T05:33:47.556Z,17.18
2019-05-19T05:38:54.470Z,17.28
2019-05-19T05:44:02.290Z,17.44
2019-05-19T05:49:08.330Z,17.71
2019-05-19T05:54:15.626Z,18.02
2019-05-19T05:59:22.468Z,18.27
2019-05-19T06:04:29.554Z,18.36
2019-05-19T06:09:36.561Z,18.62
2019-05-19T06:14:43.552Z,18.62
2019-05-19T06:19:50.599Z,18.76
2019-05-19T06:24:59.238Z,18.84
2019-05-19T06:30:10.723Z,18.84
2019-05-19T06:35:18.097Z,18.94
2019-05-19T06:40:25.455Z,19.07
2019-05-19T06:45:38.031Z,19.21
2019-05-19T06:50:44.292Z,19.34
2019-05-19T06:55:51.540Z,19.27
2019-05-19T07:00:59.244Z,19.59
2019-05-19T07:06:12.478Z,19.94
2019-05-19T07:11:19.596Z,20.09
2019-05-19T07:16:26.461Z,20.31
2019-05-19T07:21:33.564Z,20.31
2019-05-19T07:26:41.584Z,20.81
2019-05-19T07:31:48.748Z,21.09
2019-05-19T07:36:55.618Z,21.09
2019-05-19T07:42:03.599Z,21.42
2019-05-19T07:47:10.526Z,21.99
2019-05-19T07:52:17.741Z,22.37
2019-05-19T07:57:24.589Z,22.37
2019-05-19T08:02:31.653Z,22.98
2019-05-19T08:07:38.538Z,23.10
2019-05-19T08:12:46.854Z,23.37
2019-05-19T08:17:54.124Z,23.37
2019-05-19T08:23:01.447Z,23.60
2019-05-19T08:28:09.236Z,23.73
2019-05-19T08:33:16.442Z,23.81
2019-05-19T08:38:23.614Z,23.89
2019-05-19T08:43:29.339Z,23.89
2019-05-19T08:48:37.744Z,23.89
2019-05-19T08:53:46.449Z,24.02
2019-05-19T08:58:53.474Z,24.30
2019-05-19T09:04:00.557Z,25.72
2019-05-19T09:09:08.915Z,26.20
2019-05-19T09:14:15.727Z,26.20
2019-05-19T09:19:22.592Z,27.47
2019-05-19T09:24:31.104Z,28.13
2019-05-19T09:29:38.463Z,28.13
2019-05-19T09:34:46.504Z,28.90
2019-05-19T09:39:53.437Z,29.35
2019-05-19T09:45:02.127Z,29.82
2019-05-19T09:50:08.306Z,30.38
2019-05-19T09:55:14.786Z,30.68
2019-05-19T10:00:22.259Z,30.94
2019-05-19T10:05:28.504Z,31.07
2019-05-19T10:11:31.443Z,30.82
2019-05-19T10:16:40.438Z,31.00
2019-05-19T10:21:47.466Z,31.26
2019-05-19T10:26:56.924Z,31.45
2019-05-19T10:32:04.053Z,31.37
2019-05-19T10:37:11.256Z,31.13
2019-05-19T10:42:17.293Z,30.49
2019-05-19T10:47:26.446Z,29.91
2019-05-19T10:52:33.435Z,29.17
2019-05-19T10:57:41.449Z,28.81
2019-05-19T11:02:48.924Z,28.75
2019-05-19T11:07:55.739Z,28.62
2019-05-19T11:13:03.920Z,28.60
2019-05-19T11:18:10.664Z,28.75
2019-05-19T11:23:17.568Z,28.76
2019-05-19T11:28:24.438Z,29.48
2019-05-19T11:33:31.460Z,29.48
2019-05-19T11:38:38.585Z,30.33
2019-05-19T11:43:45.510Z,30.79
2019-05-19T11:48:52.925Z,31.11
2019-05-19T11:53:59.640Z,31.11
2019-05-19T11:59:06.726Z,31.49
2019-05-19T12:04:13.583Z,31.49
2019-05-19T12:09:20.424Z,31.53
2019-05-19T12:14:28.755Z,31.53
2019-05-19T12:19:35.534Z,31.65
2019-05-19T12:24:44.924Z,30.95
2019-05-19T12:29:51.583Z,30.92
2019-05-19T12:34:58.462Z,31.00
2019-05-19T12:40:06.389Z,31.00
2019-05-19T12:45:15.042Z,30.51
2019-05-19T12:50:21.340Z,30.34
2019-05-19T12:55:27.262Z,30.49
2019-05-19T13:00:33.305Z,29.89
2019-05-19T13:05:39.344Z,29.57
2019-05-19T13:10:45.282Z,30.10
2019-05-19T13:15:52.400Z,31.17
2019-05-19T13:20:59.449Z,31.94
2019-05-19T13:26:06.575Z,32.35
2019-05-19T13:31:13.497Z,30.95
2019-05-19T13:36:20.524Z,30.26
2019-05-19T13:41:27.597Z,30.15
2019-05-19T13:46:34.522Z,30.35
2019-05-19T13:51:41.578Z,31.20
2019-05-19T13:56:48.550Z,31.67
2019-05-19T14:01:56.549Z,31.40
2019-05-19T14:07:04.779Z,30.72
2019-05-19T14:12:11.568Z,30.72
2019-05-19T14:17:18.616Z,29.09
2019-05-19T14:22:25.524Z,28.63
2019-05-19T14:27:32.910Z,28.63
2019-05-19T14:32:40.246Z,28.13
2019-05-19T14:37:46.387Z,25.77
2019-05-19T14:42:58.117Z,23.71
2019-05-19T14:48:05.531Z,22.50
2019-05-19T14:53:12.508Z,22.12
2019-05-19T14:58:19.574Z,22.40
2019-05-19T15:03:26.522Z,22.65
2019-05-19T15:08:33.421Z,22.65
2019-05-19T15:13:40.573Z,23.17
2019-05-19T15:18:47.615Z,23.13
2019-05-19T15:23:54.565Z,22.62
2019-05-19T15:29:01.624Z,22.62
2019-05-19T15:34:08.566Z,21.99
2019-05-19T15:39:15.562Z,22.33
2019-05-19T15:44:22.586Z,22.33
2019-05-19T15:49:29.862Z,21.86
2019-05-19T15:54:36.601Z,21.86
2019-05-19T15:59:44.599Z,21.78
2019-05-19T16:04:51.714Z,21.78
2019-05-19T16:09:58.601Z,21.74
2019-05-19T16:19:36.579Z,22.86
2019-05-19T16:24:43.590Z,23.70
2019-05-19T16:29:50.458Z,23.87
2019-05-19T16:34:57.524Z,23.87
2019-05-19T16:40:04.588Z,23.54
2019-05-19T16:45:13.250Z,22.90
2019-05-19T16:50:19.475Z,22.90
2019-05-19T16:55:28.309Z,22.73
2019-05-19T17:00:35.524Z,22.66
2019-05-19T17:05:42.771Z,22.79
2019-05-19T17:10:49.585Z,23.07
2019-05-19T17:15:56.595Z,23.32
2019-05-19T17:21:03.569Z,23.44
2019-05-19T17:26:12.460Z,23.44
2019-05-19T17:31:19.462Z,23.40
2019-05-19T17:36:27.565Z,23.45
2019-05-19T17:41:34.589Z,23.64
2019-05-19T17:46:41.526Z,24.06
2019-05-19T17:51:51.590Z,24.14
2019-05-19T17:57:00.501Z,24.17
2019-05-19T18:02:07.453Z,24.17
2019-05-19T18:07:14.500Z,24.16
2019-05-19T18:12:21.595Z,24.14
2019-05-19T18:17:28.453Z,24.06
2019-05-19T18:22:35.502Z,24.06
2019-05-19T18:27:42.867Z,23.92
2019-05-19T18:32:49.694Z,23.86
2019-05-19T18:37:56.601Z,23.80
2019-05-19T18:43:03.609Z,23.79
2019-05-19T18:48:10.592Z,23.79
2019-05-19T18:53:17.469Z,23.67
2019-05-19T18:58:24.587Z,23.67
2019-05-19T19:03:32.063Z,23.13
2019-05-19T19:08:39.453Z,23.13
2019-05-19T19:13:45.682Z,22.89
2019-05-19T19:18:52.603Z,22.37
2019-05-19T19:23:59.585Z,21.93
2019-05-19T19:29:06.804Z,21.93
2019-05-19T19:34:14.025Z,21.32
2019-05-19T19:39:21.263Z,20.93
2019-05-19T19:44:27.318Z,20.73
2019-05-19T19:49:34.429Z,20.69
2019-05-19T19:54:40.330Z,20.70
2019-05-19T19:59:46.301Z,20.71
2019-05-19T20:04:53.579Z,20.76
2019-05-19T20:09:59.353Z,20.78
2019-05-19T20:15:07.656Z,20.54
2019-05-19T20:20:15.608Z,19.79
2019-05-19T20:25:22.583Z,19.79
2019-05-19T20:30:35.486Z,19.48
2019-05-19T20:35:39.999Z,19.48
2019-05-19T20:40:46.904Z,19.46
2019-05-19T20:45:54.922Z,19.43
2019-05-19T20:51:02.910Z,19.42
2019-05-19T20:56:09.859Z,19.40
2019-05-19T21:01:16.725Z,19.40
2019-05-19T21:06:23.597Z,19.35
2019-05-19T21:11:30.450Z,19.26
2019-05-19T21:16:38.448Z,19.26
2019-05-19T21:21:47.235Z,19.17
2019-05-19T21:26:54.674Z,19.10
2019-05-19T21:32:01.588Z,19.06
2019-05-19T21:37:08.597Z,18.94
2019-05-19T21:42:15.602Z,18.88
2019-05-19T21:47:22.633Z,18.82
2019-05-19T21:52:29.584Z,18.77
2019-05-19T21:57:37.032Z,18.72
2019-05-19T22:02:44.271Z,18.72
2019-05-19T22:08:08.319Z,18.67
2019-05-19T22:13:15.429Z,18.64
2019-05-19T22:18:22.652Z,18.63
2019-05-19T22:23:29.458Z,18.53
2019-05-19T22:28:36.451Z,18.53
2019-05-19T22:33:44.446Z,18.52
2019-05-19T22:38:53.237Z,18.44
2019-05-19T22:44:00.443Z,18.40
2019-05-19T22:49:07.592Z,18.26
2019-05-19T22:54:14.460Z,18.17
2019-05-19T22:59:22.573Z,18.17
2019-05-19T23:04:29.580Z,18.06
2019-05-19T23:09:35.317Z,18.06
2019-05-19T23:14:42.401Z,17.99
2019-05-19T23:19:49.452Z,17.96
2019-05-19T23:24:56.668Z,17.88
2019-05-19T23:30:03.556Z,17.75
2019-05-19T23:35:10.786Z,17.75
2019-05-19T23:40:18.030Z,17.71
2019-05-19T23:45:25.235Z,17.66
2019-05-19T23:50:32.555Z,17.63
2019-05-19T23:55:39.521Z,17.47
